Terminal Aerodrome Forecast
Issued by NWS Boston, MA

Home | Current Version | Previous Version | Text Only | Print | Product List | Glossary On
Versions: 1 2 3 4 5 6 7 8 9 10 11 12 13 14 15 16 17 18 19
000
FTUS41 KBOX 060535
TAFORH
TAF
KORH 060535Z 0606/0706 28009KT P6SM FEW040
     FM061100 32006KT P6SM FEW250
     FM062000 05004KT P6SM SCT250
     FM062300 VRB03KT P6SM BKN110
     FM070200 VRB03KT P6SM OVC050
     FM070500 VRB03KT 6SM -SN OVC025=

USA.gov is the U.S. government's official web portal to all federal, state and local government web resources and services.